Terminal Aerodrome Forecast
Issued by NWS

Home | Current Version | Previous Version | Graphics & Text | Print | Product List | Glossary On
Versions: 1 2 3 4 5 6 7 8 9 10 11 12 13 14 15 16 17
957
FTUS43 KFGF 232333
TAFBJI
TAF
KBJI 232333Z 2400/2424 03009KT P6SM BKN040
     FM240300 03004KT P6SM SCT080
     FM241400 09005KT P6SM FEW130=

USA.gov is the U.S. government's official web portal to all federal, state and local government web resources and services.